sensor_id;sensor_type;location;lat;lon;timestamp;P1;durP1;ratioP1;P2;durP2;ratioP2
38972;SDS011;25333;50.762;4.470;2022-07-29T00:00:38;2.92;;;0.98;;
38972;SDS011;25333;50.762;4.470;2022-07-29T00:03:04;4.90;;;0.90;;
38972;SDS011;25333;50.762;4.470;2022-07-29T00:05:30;2.25;;;0.63;;
38972;SDS011;25333;50.762;4.470;2022-07-29T00:07:56;2.70;;;0.50;;
38972;SDS011;25333;50.762;4.470;2022-07-29T00:10:21;3.05;;;1.02;;
38972;SDS011;25333;50.762;4.470;2022-07-29T00:12:47;3.25;;;0.70;;
38972;SDS011;25333;50.762;4.470;2022-07-29T00:15:12;2.60;;;1.10;;
38972;SDS011;25333;50.762;4.470;2022-07-29T00:17:38;1.63;;;0.73;;
38972;SDS011;25333;50.762;4.470;2022-07-29T00:20:04;2.10;;;0.50;;
38972;SDS011;25333;50.762;4.470;2022-07-29T00:22:30;3.75;;;1.05;;
38972;SDS011;25333;50.762;4.470;2022-07-29T00:24:56;2.28;;;0.80;;
38972;SDS011;25333;50.762;4.470;2022-07-29T00:27:21;3.10;;;1.50;;
38972;SDS011;25333;50.762;4.470;2022-07-29T00:29:47;1.57;;;0.60;;
38972;SDS011;25333;50.762;4.470;2022-07-29T00:32:13;2.65;;;0.77;;
38972;SDS011;25333;50.762;4.470;2022-07-29T00:34:38;2.03;;;0.70;;
38972;SDS011;25333;50.762;4.470;2022-07-29T00:37:23;2.10;;;0.47;;
38972;SDS011;25333;50.762;4.470;2022-07-29T00:39:48;5.35;;;1.30;;
38972;SDS011;25333;50.762;4.470;2022-07-29T00:42:14;2.87;;;0.90;;
38972;SDS011;25333;50.762;4.470;2022-07-29T00:44:41;2.40;;;0.67;;
38972;SDS011;25333;50.762;4.470;2022-07-29T00:47:07;3.53;;;0.68;;
38972;SDS011;25333;50.762;4.470;2022-07-29T00:49:35;2.20;;;0.90;;
38972;SDS011;25333;50.762;4.470;2022-07-29T00:52:03;1.70;;;0.70;;
38972;SDS011;25333;50.762;4.470;2022-07-29T00:54:30;3.47;;;1.10;;
38972;SDS011;25333;50.762;4.470;2022-07-29T00:56:59;1.67;;;0.60;;
38972;SDS011;25333;50.762;4.470;2022-07-29T00:59:28;2.53;;;0.98;;
38972;SDS011;25333;50.762;4.470;2022-07-29T01:01:54;2.22;;;0.80;;
38972;SDS011;25333;50.762;4.470;2022-07-29T01:04:20;2.97;;;0.77;;
38972;SDS011;25333;50.762;4.470;2022-07-29T01:06:47;3.47;;;0.80;;
38972;SDS011;25333;50.762;4.470;2022-07-29T01:09:14;3.28;;;0.77;;
38972;SDS011;25333;50.762;4.470;2022-07-29T01:11:41;4.60;;;0.70;;
38972;SDS011;25333;50.762;4.470;2022-07-29T01:14:08;2.40;;;0.82;;
38972;SDS011;25333;50.762;4.470;2022-07-29T01:16:57;1.80;;;0.73;;
38972;SDS011;25333;50.762;4.470;2022-07-29T01:22:15;2.40;;;0.75;;
38972;SDS011;25333;50.762;4.470;2022-07-29T01:27:47;1.90;;;1.00;;
38972;SDS011;25333;50.762;4.470;2022-07-29T01:30:25;3.10;;;1.08;;
38972;SDS011;25333;50.762;4.470;2022-07-29T01:32:53;2.20;;;0.93;;
38972;SDS011;25333;50.762;4.470;2022-07-29T01:35:25;1.50;;;0.57;;
38972;SDS011;25333;50.762;4.470;2022-07-29T01:40:48;1.77;;;0.68;;
38972;SDS011;25333;50.762;4.470;2022-07-29T01:43:20;4.20;;;1.02;;
38972;SDS011;25333;50.762;4.470;2022-07-29T01:46:01;1.73;;;0.57;;
38972;SDS011;25333;50.762;4.470;2022-07-29T01:51:06;2.20;;;1.00;;
38972;SDS011;25333;50.762;4.470;2022-07-29T01:53:37;1.55;;;0.68;;
38972;SDS011;25333;50.762;4.470;2022-07-29T01:56:07;4.90;;;1.08;;
38972;SDS011;25333;50.762;4.470;2022-07-29T01:58:35;3.90;;;0.60;;
38972;SDS011;25333;50.762;4.470;2022-07-29T02:01:03;2.88;;;1.15;;
38972;SDS011;25333;50.762;4.470;2022-07-29T02:03:31;2.20;;;1.00;;
38972;SDS011;25333;50.762;4.470;2022-07-29T02:05:59;2.13;;;0.98;;
38972;SDS011;25333;50.762;4.470;2022-07-29T02:08:28;1.92;;;0.47;;
38972;SDS011;25333;50.762;4.470;2022-07-29T02:10:55;1.70;;;1.10;;
38972;SDS011;25333;50.762;4.470;2022-07-29T02:13:21;3.92;;;1.17;;
38972;SDS011;25333;50.762;4.470;2022-07-29T02:15:49;1.48;;;0.80;;
38972;SDS011;25333;50.762;4.470;2022-07-29T02:18:17;1.70;;;0.65;;
38972;SDS011;25333;50.762;4.470;2022-07-29T02:20:47;3.60;;;1.00;;
38972;SDS011;25333;50.762;4.470;2022-07-29T02:23:16;1.50;;;0.70;;
38972;SDS011;25333;50.762;4.470;2022-07-29T02:25:44;2.55;;;1.10;;
38972;SDS011;25333;50.762;4.470;2022-07-29T02:28:12;2.00;;;0.97;;
38972;SDS011;25333;50.762;4.470;2022-07-29T02:30:40;2.15;;;0.90;;
38972;SDS011;25333;50.762;4.470;2022-07-29T02:33:08;4.70;;;0.90;;
38972;SDS011;25333;50.762;4.470;2022-07-29T02:35:37;13.30;;;1.92;;
38972;SDS011;25333;50.762;4.470;2022-07-29T02:38:05;18.92;;;2.28;;
38972;SDS011;25333;50.762;4.470;2022-07-29T02:40:51;3.28;;;1.23;;
38972;SDS011;25333;50.762;4.470;2022-07-29T02:43:18;7.32;;;1.92;;
38972;SDS011;25333;50.762;4.470;2022-07-29T02:45:45;4.38;;;1.20;;
38972;SDS011;25333;50.762;4.470;2022-07-29T02:48:15;5.25;;;1.05;;
38972;SDS011;25333;50.762;4.470;2022-07-29T02:50:46;3.08;;;1.10;;
38972;SDS011;25333;50.762;4.470;2022-07-29T02:53:19;3.78;;;0.90;;
38972;SDS011;25333;50.762;4.470;2022-07-29T02:55:54;4.60;;;0.77;;
38972;SDS011;25333;50.762;4.470;2022-07-29T02:58:32;4.15;;;1.02;;
38972;SDS011;25333;50.762;4.470;2022-07-29T03:01:03;3.28;;;0.90;;
38972;SDS011;25333;50.762;4.470;2022-07-29T03:03:34;2.80;;;1.00;;
38972;SDS011;25333;50.762;4.470;2022-07-29T03:06:02;2.50;;;1.00;;
38972;SDS011;25333;50.762;4.470;2022-07-29T03:08:29;8.48;;;1.50;;
38972;SDS011;25333;50.762;4.470;2022-07-29T03:10:56;6.82;;;1.67;;
38972;SDS011;25333;50.762;4.470;2022-07-29T03:13:22;2.25;;;0.77;;
38972;SDS011;25333;50.762;4.470;2022-07-29T03:15:49;1.85;;;0.70;;
38972;SDS011;25333;50.762;4.470;2022-07-29T03:18:15;1.80;;;0.77;;
38972;SDS011;25333;50.762;4.470;2022-07-29T03:20:41;1.52;;;0.70;;
38972;SDS011;25333;50.762;4.470;2022-07-29T03:23:07;1.45;;;0.70;;
38972;SDS011;25333;50.762;4.470;2022-07-29T03:25:33;6.80;;;1.10;;
38972;SDS011;25333;50.762;4.470;2022-07-29T03:27:59;2.20;;;0.63;;
38972;SDS011;25333;50.762;4.470;2022-07-29T03:30:25;3.15;;;0.85;;
38972;SDS011;25333;50.762;4.470;2022-07-29T03:32:51;4.60;;;1.00;;
38972;SDS011;25333;50.762;4.470;2022-07-29T03:35:18;4.68;;;1.15;;
38972;SDS011;25333;50.762;4.470;2022-07-29T03:37:44;1.70;;;0.80;;
38972;SDS011;25333;50.762;4.470;2022-07-29T03:40:11;2.50;;;0.82;;
38972;SDS011;25333;50.762;4.470;2022-07-29T03:42:47;2.70;;;0.90;;
38972;SDS011;25333;50.762;4.470;2022-07-29T03:45:15;4.95;;;1.40;;
38972;SDS011;25333;50.762;4.470;2022-07-29T03:47:45;2.97;;;1.30;;
38972;SDS011;25333;50.762;4.470;2022-07-29T03:50:16;3.60;;;1.52;;
38972;SDS011;25333;50.762;4.470;2022-07-29T03:52:44;3.13;;;1.05;;
38972;SDS011;25333;50.762;4.470;2022-07-29T03:55:10;1.85;;;0.80;;
38972;SDS011;25333;50.762;4.470;2022-07-29T03:57:37;2.25;;;0.75;;
38972;SDS011;25333;50.762;4.470;2022-07-29T04:00:04;2.30;;;1.00;;
38972;SDS011;25333;50.762;4.470;2022-07-29T04:02:31;3.17;;;1.17;;
38972;SDS011;25333;50.762;4.470;2022-07-29T04:04:58;2.70;;;0.90;;
38972;SDS011;25333;50.762;4.470;2022-07-29T04:07:24;1.88;;;0.90;;
38972;SDS011;25333;50.762;4.470;2022-07-29T04:09:49;2.07;;;0.73;;
38972;SDS011;25333;50.762;4.470;2022-07-29T04:12:15;2.17;;;1.08;;
38972;SDS011;25333;50.762;4.470;2022-07-29T04:14:40;3.10;;;0.93;;
38972;SDS011;25333;50.762;4.470;2022-07-29T04:17:06;1.50;;;0.70;;
38972;SDS011;25333;50.762;4.470;2022-07-29T04:19:32;1.95;;;0.93;;
38972;SDS011;25333;50.762;4.470;2022-07-29T04:21:59;2.23;;;0.80;;
38972;SDS011;25333;50.762;4.470;2022-07-29T04:24:25;1.67;;;0.90;;
38972;SDS011;25333;50.762;4.470;2022-07-29T04:26:51;2.35;;;1.05;;
38972;SDS011;25333;50.762;4.470;2022-07-29T04:29:16;3.50;;;0.90;;
38972;SDS011;25333;50.762;4.470;2022-07-29T04:31:42;1.70;;;1.00;;
38972;SDS011;25333;50.762;4.470;2022-07-29T04:34:08;1.60;;;0.60;;
38972;SDS011;25333;50.762;4.470;2022-07-29T04:36:34;1.88;;;0.98;;
38972;SDS011;25333;50.762;4.470;2022-07-29T04:39:00;2.53;;;1.03;;
38972;SDS011;25333;50.762;4.470;2022-07-29T04:41:26;2.00;;;1.10;;
38972;SDS011;25333;50.762;4.470;2022-07-29T04:43:52;2.38;;;0.85;;
38972;SDS011;25333;50.762;4.470;2022-07-29T04:46:18;2.07;;;0.83;;
38972;SDS011;25333;50.762;4.470;2022-07-29T04:48:45;1.20;;;0.70;;
38972;SDS011;25333;50.762;4.470;2022-07-29T04:51:11;1.58;;;0.70;;
38972;SDS011;25333;50.762;4.470;2022-07-29T04:53:37;1.85;;;0.80;;
38972;SDS011;25333;50.762;4.470;2022-07-29T04:56:02;1.77;;;0.55;;
38972;SDS011;25333;50.762;4.470;2022-07-29T04:58:28;3.30;;;0.85;;
38972;SDS011;25333;50.762;4.470;2022-07-29T05:00:54;1.00;;;0.45;;
38972;SDS011;25333;50.762;4.470;2022-07-29T05:03:20;2.17;;;0.80;;
38972;SDS011;25333;50.762;4.470;2022-07-29T05:05:45;3.40;;;1.00;;
38972;SDS011;25333;50.762;4.470;2022-07-29T05:08:11;1.87;;;0.90;;
38972;SDS011;25333;50.762;4.470;2022-07-29T05:10:37;1.95;;;0.90;;
38972;SDS011;25333;50.762;4.470;2022-07-29T05:13:06;1.90;;;0.87;;
38972;SDS011;25333;50.762;4.470;2022-07-29T05:15:33;3.13;;;0.70;;
38972;SDS011;25333;50.762;4.470;2022-07-29T05:18:00;2.55;;;0.80;;
38972;SDS011;25333;50.762;4.470;2022-07-29T05:20:26;3.10;;;0.75;;
38972;SDS011;25333;50.762;4.470;2022-07-29T05:22:57;2.37;;;0.60;;
38972;SDS011;25333;50.762;4.470;2022-07-29T05:25:26;2.30;;;0.80;;
38972;SDS011;25333;50.762;4.470;2022-07-29T05:27:53;2.22;;;1.33;;
38972;SDS011;25333;50.762;4.470;2022-07-29T05:30:19;1.50;;;0.80;;
38972;SDS011;25333;50.762;4.470;2022-07-29T05:32:44;1.52;;;0.85;;
38972;SDS011;25333;50.762;4.470;2022-07-29T05:35:11;2.03;;;1.00;;
38972;SDS011;25333;50.762;4.470;2022-07-29T05:37:38;2.45;;;1.13;;
38972;SDS011;25333;50.762;4.470;2022-07-29T05:40:04;1.95;;;1.15;;
38972;SDS011;25333;50.762;4.470;2022-07-29T05:42:30;1.80;;;0.98;;
38972;SDS011;25333;50.762;4.470;2022-07-29T05:44:55;3.43;;;1.57;;
38972;SDS011;25333;50.762;4.470;2022-07-29T05:47:21;3.07;;;1.43;;
38972;SDS011;25333;50.762;4.470;2022-07-29T05:49:48;4.55;;;1.38;;
38972;SDS011;25333;50.762;4.470;2022-07-29T05:52:14;3.60;;;1.50;;
38972;SDS011;25333;50.762;4.470;2022-07-29T05:54:40;2.92;;;1.60;;
38972;SDS011;25333;50.762;4.470;2022-07-29T05:57:05;3.10;;;1.60;;
38972;SDS011;25333;50.762;4.470;2022-07-29T05:59:35;4.90;;;2.43;;
38972;SDS011;25333;50.762;4.470;2022-07-29T06:02:01;3.92;;;1.60;;
38972;SDS011;25333;50.762;4.470;2022-07-29T06:04:27;7.00;;;2.30;;
38972;SDS011;25333;50.762;4.470;2022-07-29T06:06:52;2.77;;;1.17;;
38972;SDS011;25333;50.762;4.470;2022-07-29T06:09:18;4.80;;;1.90;;
38972;SDS011;25333;50.762;4.470;2022-07-29T06:11:43;3.20;;;1.95;;
38972;SDS011;25333;50.762;4.470;2022-07-29T06:14:09;1.70;;;1.10;;
38972;SDS011;25333;50.762;4.470;2022-07-29T06:16:35;2.15;;;1.35;;
38972;SDS011;25333;50.762;4.470;2022-07-29T06:19:00;3.10;;;1.83;;
38972;SDS011;25333;50.762;4.470;2022-07-29T06:21:26;2.70;;;1.77;;
38972;SDS011;25333;50.762;4.470;2022-07-29T06:23:51;2.50;;;1.27;;
38972;SDS011;25333;50.762;4.470;2022-07-29T06:26:17;4.27;;;1.50;;
38972;SDS011;25333;50.762;4.470;2022-07-29T06:28:42;2.27;;;1.40;;
38972;SDS011;25333;50.762;4.470;2022-07-29T06:31:08;2.45;;;1.50;;
38972;SDS011;25333;50.762;4.470;2022-07-29T06:33:34;2.60;;;1.50;;
38972;SDS011;25333;50.762;4.470;2022-07-29T06:35:59;3.10;;;1.15;;
38972;SDS011;25333;50.762;4.470;2022-07-29T06:38:25;4.47;;;1.80;;
38972;SDS011;25333;50.762;4.470;2022-07-29T06:40:50;2.57;;;1.60;;
38972;SDS011;25333;50.762;4.470;2022-07-29T06:43:25;5.40;;;1.77;;
38972;SDS011;25333;50.762;4.470;2022-07-29T06:45:56;3.65;;;1.92;;
38972;SDS011;25333;50.762;4.470;2022-07-29T06:48:26;3.40;;;1.73;;
38972;SDS011;25333;50.762;4.470;2022-07-29T06:50:52;3.58;;;1.95;;
38972;SDS011;25333;50.762;4.470;2022-07-29T06:53:18;5.27;;;1.70;;
38972;SDS011;25333;50.762;4.470;2022-07-29T06:55:44;6.05;;;1.92;;
38972;SDS011;25333;50.762;4.470;2022-07-29T06:58:09;5.95;;;2.55;;
38972;SDS011;25333;50.762;4.470;2022-07-29T07:00:35;3.17;;;2.22;;
38972;SDS011;25333;50.762;4.470;2022-07-29T07:03:01;4.55;;;1.90;;
38972;SDS011;25333;50.762;4.470;2022-07-29T07:05:27;4.57;;;2.10;;
38972;SDS011;25333;50.762;4.470;2022-07-29T07:07:53;2.67;;;1.70;;
38972;SDS011;25333;50.762;4.470;2022-07-29T07:10:18;2.75;;;1.85;;
38972;SDS011;25333;50.762;4.470;2022-07-29T07:12:44;3.63;;;2.10;;
38972;SDS011;25333;50.762;4.470;2022-07-29T07:15:10;4.93;;;2.07;;
38972;SDS011;25333;50.762;4.470;2022-07-29T07:17:35;4.70;;;1.80;;
38972;SDS011;25333;50.762;4.470;2022-07-29T07:20:02;3.63;;;1.70;;
38972;SDS011;25333;50.762;4.470;2022-07-29T07:22:29;3.03;;;1.83;;
38972;SDS011;25333;50.762;4.470;2022-07-29T07:24:55;3.30;;;1.70;;
38972;SDS011;25333;50.762;4.470;2022-07-29T07:27:21;3.07;;;1.80;;
38972;SDS011;25333;50.762;4.470;2022-07-29T07:29:46;4.20;;;1.87;;
38972;SDS011;25333;50.762;4.470;2022-07-29T07:32:12;3.73;;;1.50;;
38972;SDS011;25333;50.762;4.470;2022-07-29T07:34:38;3.90;;;1.90;;
38972;SDS011;25333;50.762;4.470;2022-07-29T07:37:04;2.87;;;2.03;;
38972;SDS011;25333;50.762;4.470;2022-07-29T07:39:29;6.00;;;1.95;;
38972;SDS011;25333;50.762;4.470;2022-07-29T07:41:55;3.55;;;1.77;;
38972;SDS011;25333;50.762;4.470;2022-07-29T07:44:21;7.15;;;1.75;;
38972;SDS011;25333;50.762;4.470;2022-07-29T07:46:46;2.67;;;1.40;;
38972;SDS011;25333;50.762;4.470;2022-07-29T07:49:12;5.30;;;1.80;;
38972;SDS011;25333;50.762;4.470;2022-07-29T07:51:37;4.60;;;1.88;;
38972;SDS011;25333;50.762;4.470;2022-07-29T07:54:03;2.95;;;1.33;;
38972;SDS011;25333;50.762;4.470;2022-07-29T07:56:29;2.05;;;0.73;;
38972;SDS011;25333;50.762;4.470;2022-07-29T07:58:54;4.38;;;1.73;;
38972;SDS011;25333;50.762;4.470;2022-07-29T08:01:20;3.38;;;1.33;;
38972;SDS011;25333;50.762;4.470;2022-07-29T08:03:47;3.15;;;1.52;;
38972;SDS011;25333;50.762;4.470;2022-07-29T08:06:14;1.60;;;1.25;;
38972;SDS011;25333;50.762;4.470;2022-07-29T08:08:40;2.78;;;1.52;;
38972;SDS011;25333;50.762;4.470;2022-07-29T08:11:06;4.83;;;1.50;;
38972;SDS011;25333;50.762;4.470;2022-07-29T08:13:31;3.33;;;1.70;;
38972;SDS011;25333;50.762;4.470;2022-07-29T08:15:58;4.03;;;1.27;;
38972;SDS011;25333;50.762;4.470;2022-07-29T08:18:36;4.45;;;2.05;;
38972;SDS011;25333;50.762;4.470;2022-07-29T08:21:02;3.42;;;1.60;;
38972;SDS011;25333;50.762;4.470;2022-07-29T08:23:27;3.20;;;1.25;;
38972;SDS011;25333;50.762;4.470;2022-07-29T08:26:00;2.47;;;1.30;;
38972;SDS011;25333;50.762;4.470;2022-07-29T08:28:26;6.50;;;1.75;;
38972;SDS011;25333;50.762;4.470;2022-07-29T08:30:51;4.55;;;1.20;;
38972;SDS011;25333;50.762;4.470;2022-07-29T08:33:17;2.42;;;1.05;;
38972;SDS011;25333;50.762;4.470;2022-07-29T08:35:43;3.27;;;1.63;;
38972;SDS011;25333;50.762;4.470;2022-07-29T08:38:08;3.90;;;1.80;;
38972;SDS011;25333;50.762;4.470;2022-07-29T08:40:34;1.80;;;1.27;;
38972;SDS011;25333;50.762;4.470;2022-07-29T08:43:04;2.35;;;1.50;;
38972;SDS011;25333;50.762;4.470;2022-07-29T08:45:34;3.40;;;1.15;;
38972;SDS011;25333;50.762;4.470;2022-07-29T08:48:08;2.55;;;1.10;;
38972;SDS011;25333;50.762;4.470;2022-07-29T08:50:35;2.40;;;1.20;;
38972;SDS011;25333;50.762;4.470;2022-07-29T08:53:01;7.93;;;1.90;;
38972;SDS011;25333;50.762;4.470;2022-07-29T08:55:28;3.85;;;1.65;;
38972;SDS011;25333;50.762;4.470;2022-07-29T08:57:55;5.00;;;2.03;;
38972;SDS011;25333;50.762;4.470;2022-07-29T09:00:21;6.38;;;1.30;;
38972;SDS011;25333;50.762;4.470;2022-07-29T09:02:48;3.77;;;1.73;;
38972;SDS011;25333;50.762;4.470;2022-07-29T09:05:20;2.70;;;1.20;;
38972;SDS011;25333;50.762;4.470;2022-07-29T09:07:45;1.85;;;1.08;;
38972;SDS011;25333;50.762;4.470;2022-07-29T09:10:12;5.05;;;1.52;;
38972;SDS011;25333;50.762;4.470;2022-07-29T09:12:38;2.70;;;1.20;;
38972;SDS011;25333;50.762;4.470;2022-07-29T09:15:04;1.60;;;1.05;;
38972;SDS011;25333;50.762;4.470;2022-07-29T09:17:47;3.10;;;1.20;;
38972;SDS011;25333;50.762;4.470;2022-07-29T09:20:16;2.40;;;0.80;;
38972;SDS011;25333;50.762;4.470;2022-07-29T09:22:44;3.58;;;1.17;;
38972;SDS011;25333;50.762;4.470;2022-07-29T09:25:14;2.08;;;0.80;;
38972;SDS011;25333;50.762;4.470;2022-07-29T09:28:04;1.42;;;0.77;;
38972;SDS011;25333;50.762;4.470;2022-07-29T09:30:50;1.90;;;0.80;;
38972;SDS011;25333;50.762;4.470;2022-07-29T09:33:17;3.72;;;1.30;;
38972;SDS011;25333;50.762;4.470;2022-07-29T09:35:43;2.75;;;1.02;;
38972;SDS011;25333;50.762;4.470;2022-07-29T09:38:09;1.17;;;0.73;;
38972;SDS011;25333;50.762;4.470;2022-07-29T09:40:36;1.77;;;0.80;;
38972;SDS011;25333;50.762;4.470;2022-07-29T09:43:09;3.47;;;0.90;;
38972;SDS011;25333;50.762;4.470;2022-07-29T09:45:36;3.88;;;1.17;;
38972;SDS011;25333;50.762;4.470;2022-07-29T09:48:22;3.97;;;0.80;;
38972;SDS011;25333;50.762;4.470;2022-07-29T09:50:49;2.88;;;0.68;;
38972;SDS011;25333;50.762;4.470;2022-07-29T09:53:29;3.10;;;0.95;;
38972;SDS011;25333;50.762;4.470;2022-07-29T09:55:56;1.67;;;0.77;;
38972;SDS011;25333;50.762;4.470;2022-07-29T09:58:22;2.05;;;0.65;;
38972;SDS011;25333;50.762;4.470;2022-07-29T10:00:48;1.45;;;0.50;;
38972;SDS011;25333;50.762;4.470;2022-07-29T10:03:16;4.38;;;0.73;;
38972;SDS011;25333;50.762;4.470;2022-07-29T10:05:42;1.60;;;0.68;;
38972;SDS011;25333;50.762;4.470;2022-07-29T10:08:08;2.42;;;0.93;;
38972;SDS011;25333;50.762;4.470;2022-07-29T10:10:39;3.05;;;1.02;;
38972;SDS011;25333;50.762;4.470;2022-07-29T10:13:11;2.33;;;0.93;;
38972;SDS011;25333;50.762;4.470;2022-07-29T10:15:39;2.40;;;0.95;;
38972;SDS011;25333;50.762;4.470;2022-07-29T10:18:08;1.20;;;0.45;;
38972;SDS011;25333;50.762;4.470;2022-07-29T10:20:35;1.67;;;0.75;;
38972;SDS011;25333;50.762;4.470;2022-07-29T10:23:01;3.95;;;0.90;;
38972;SDS011;25333;50.762;4.470;2022-07-29T10:25:27;2.92;;;1.02;;
38972;SDS011;25333;50.762;4.470;2022-07-29T10:27:53;3.58;;;0.98;;
38972;SDS011;25333;50.762;4.470;2022-07-29T10:30:20;1.63;;;0.63;;
38972;SDS011;25333;50.762;4.470;2022-07-29T10:43:51;3.75;;;1.30;;
38972;SDS011;25333;50.762;4.470;2022-07-29T10:46:28;1.42;;;0.47;;
38972;SDS011;25333;50.762;4.470;2022-07-29T10:59:50;2.92;;;0.65;;
38972;SDS011;25333;50.762;4.470;2022-07-29T11:07:31;1.75;;;0.70;;
38972;SDS011;25333;50.762;4.470;2022-07-29T11:25:45;3.80;;;0.75;;
38972;SDS011;25333;50.762;4.470;2022-07-29T11:28:31;1.27;;;0.70;;
38972;SDS011;25333;50.762;4.470;2022-07-29T11:30:58;1.70;;;0.70;;
38972;SDS011;25333;50.762;4.470;2022-07-29T11:33:30;1.93;;;0.83;;
38972;SDS011;25333;50.762;4.470;2022-07-29T11:36:06;2.75;;;0.95;;
38972;SDS011;25333;50.762;4.470;2022-07-29T11:38:34;2.30;;;0.77;;
38972;SDS011;25333;50.762;4.470;2022-07-29T11:43:55;3.00;;;1.00;;
38972;SDS011;25333;50.762;4.470;2022-07-29T11:49:12;2.05;;;0.73;;
38972;SDS011;25333;50.762;4.470;2022-07-29T11:51:39;2.25;;;0.80;;
38972;SDS011;25333;50.762;4.470;2022-07-29T11:54:07;2.83;;;0.80;;
38972;SDS011;25333;50.762;4.470;2022-07-29T11:56:40;3.13;;;0.77;;
38972;SDS011;25333;50.762;4.470;2022-07-29T11:59:08;3.67;;;1.00;;
38972;SDS011;25333;50.762;4.470;2022-07-29T12:01:35;2.75;;;0.98;;
38972;SDS011;25333;50.762;4.470;2022-07-29T12:04:04;3.15;;;0.90;;
38972;SDS011;25333;50.762;4.470;2022-07-29T12:06:31;1.98;;;0.95;;
38972;SDS011;25333;50.762;4.470;2022-07-29T12:09:00;2.35;;;1.17;;
38972;SDS011;25333;50.762;4.470;2022-07-29T12:11:31;1.23;;;0.75;;
38972;SDS011;25333;50.762;4.470;2022-07-29T12:13:57;3.13;;;1.38;;
38972;SDS011;25333;50.762;4.470;2022-07-29T12:16:22;2.03;;;0.80;;
38972;SDS011;25333;50.762;4.470;2022-07-29T12:18:55;3.88;;;1.20;;
38972;SDS011;25333;50.762;4.470;2022-07-29T12:21:21;4.70;;;1.60;;
38972;SDS011;25333;50.762;4.470;2022-07-29T12:23:53;1.65;;;0.80;;
38972;SDS011;25333;50.762;4.470;2022-07-29T12:26:19;2.47;;;0.93;;
38972;SDS011;25333;50.762;4.470;2022-07-29T12:28:45;2.92;;;0.90;;
38972;SDS011;25333;50.762;4.470;2022-07-29T12:31:14;2.75;;;1.13;;
38972;SDS011;25333;50.762;4.470;2022-07-29T12:33:41;2.50;;;0.80;;
38972;SDS011;25333;50.762;4.470;2022-07-29T12:36:07;2.95;;;1.20;;
38972;SDS011;25333;50.762;4.470;2022-07-29T12:38:33;2.15;;;1.08;;
38972;SDS011;25333;50.762;4.470;2022-07-29T12:41:00;2.20;;;1.20;;
38972;SDS011;25333;50.762;4.470;2022-07-29T12:43:26;2.72;;;1.10;;
38972;SDS011;25333;50.762;4.470;2022-07-29T12:45:53;3.10;;;0.95;;
38972;SDS011;25333;50.762;4.470;2022-07-29T12:48:36;4.15;;;1.45;;
38972;SDS011;25333;50.762;4.470;2022-07-29T12:51:03;2.33;;;1.40;;
38972;SDS011;25333;50.762;4.470;2022-07-29T12:53:29;1.98;;;1.20;;
38972;SDS011;25333;50.762;4.470;2022-07-29T12:55:56;3.90;;;1.63;;
38972;SDS011;25333;50.762;4.470;2022-07-29T12:58:38;3.58;;;1.58;;
38972;SDS011;25333;50.762;4.470;2022-07-29T13:03:45;3.22;;;1.90;;
38972;SDS011;25333;50.762;4.470;2022-07-29T13:09:12;4.00;;;1.50;;
38972;SDS011;25333;50.762;4.470;2022-07-29T13:11:41;3.10;;;2.40;;
38972;SDS011;25333;50.762;4.470;2022-07-29T13:14:09;3.90;;;2.28;;
38972;SDS011;25333;50.762;4.470;2022-07-29T13:16:37;3.10;;;1.95;;
38972;SDS011;25333;50.762;4.470;2022-07-29T13:19:31;2.42;;;1.50;;
38972;SDS011;25333;50.762;4.470;2022-07-29T13:22:07;3.08;;;1.42;;
38972;SDS011;25333;50.762;4.470;2022-07-29T13:27:27;2.30;;;1.30;;
38972;SDS011;25333;50.762;4.470;2022-07-29T13:29:54;4.10;;;1.40;;
38972;SDS011;25333;50.762;4.470;2022-07-29T13:32:22;4.07;;;1.77;;
38972;SDS011;25333;50.762;4.470;2022-07-29T13:34:50;3.17;;;1.85;;
38972;SDS011;25333;50.762;4.470;2022-07-29T13:37:16;2.70;;;1.33;;
38972;SDS011;25333;50.762;4.470;2022-07-29T13:39:42;2.57;;;1.17;;
38972;SDS011;25333;50.762;4.470;2022-07-29T13:42:07;1.90;;;1.08;;
38972;SDS011;25333;50.762;4.470;2022-07-29T13:44:34;4.15;;;1.30;;
38972;SDS011;25333;50.762;4.470;2022-07-29T13:47:00;2.92;;;1.20;;
38972;SDS011;25333;50.762;4.470;2022-07-29T13:49:25;3.53;;;1.60;;
38972;SDS011;25333;50.762;4.470;2022-07-29T13:51:52;3.80;;;1.75;;
38972;SDS011;25333;50.762;4.470;2022-07-29T13:54:18;1.95;;;1.15;;
38972;SDS011;25333;50.762;4.470;2022-07-29T13:56:44;1.90;;;1.10;;
38972;SDS011;25333;50.762;4.470;2022-07-29T13:59:10;2.07;;;1.13;;
38972;SDS011;25333;50.762;4.470;2022-07-29T14:01:36;3.03;;;1.37;;
38972;SDS011;25333;50.762;4.470;2022-07-29T14:04:02;2.47;;;1.00;;
38972;SDS011;25333;50.762;4.470;2022-07-29T14:06:28;3.78;;;1.38;;
38972;SDS011;25333;50.762;4.470;2022-07-29T14:08:54;2.63;;;1.10;;
38972;SDS011;25333;50.762;4.470;2022-07-29T14:11:19;4.22;;;0.90;;
38972;SDS011;25333;50.762;4.470;2022-07-29T14:13:45;2.08;;;0.85;;
38972;SDS011;25333;50.762;4.470;2022-07-29T14:16:11;2.70;;;1.17;;
38972;SDS011;25333;50.762;4.470;2022-07-29T14:18:36;5.03;;;0.73;;
38972;SDS011;25333;50.762;4.470;2022-07-29T14:21:02;2.73;;;1.00;;
38972;SDS011;25333;50.762;4.470;2022-07-29T14:23:28;3.67;;;1.00;;
38972;SDS011;25333;50.762;4.470;2022-07-29T14:25:53;2.85;;;0.80;;
38972;SDS011;25333;50.762;4.470;2022-07-29T14:28:19;1.92;;;0.80;;
38972;SDS011;25333;50.762;4.470;2022-07-29T14:30:45;2.43;;;1.30;;
38972;SDS011;25333;50.762;4.470;2022-07-29T14:33:10;2.30;;;0.70;;
38972;SDS011;25333;50.762;4.470;2022-07-29T14:35:36;2.85;;;1.15;;
38972;SDS011;25333;50.762;4.470;2022-07-29T14:38:02;3.67;;;1.08;;
38972;SDS011;25333;50.762;4.470;2022-07-29T14:40:28;5.23;;;1.00;;
38972;SDS011;25333;50.762;4.470;2022-07-29T14:42:54;2.10;;;0.90;;
38972;SDS011;25333;50.762;4.470;2022-07-29T14:45:19;2.23;;;0.73;;
38972;SDS011;25333;50.762;4.470;2022-07-29T14:47:45;2.63;;;0.70;;
38972;SDS011;25333;50.762;4.470;2022-07-29T14:50:11;1.25;;;0.63;;
38972;SDS011;25333;50.762;4.470;2022-07-29T14:52:37;1.92;;;0.63;;
38972;SDS011;25333;50.762;4.470;2022-07-29T14:55:03;3.85;;;0.80;;
38972;SDS011;25333;50.762;4.470;2022-07-29T14:57:29;1.83;;;0.60;;
38972;SDS011;25333;50.762;4.470;2022-07-29T14:59:55;1.90;;;0.63;;
38972;SDS011;25333;50.762;4.470;2022-07-29T15:02:21;1.35;;;0.77;;
38972;SDS011;25333;50.762;4.470;2022-07-29T15:04:46;1.53;;;0.50;;
38972;SDS011;25333;50.762;4.470;2022-07-29T15:07:13;3.85;;;1.02;;
38972;SDS011;25333;50.762;4.470;2022-07-29T15:09:39;5.68;;;1.00;;
38972;SDS011;25333;50.762;4.470;2022-07-29T15:12:04;2.73;;;0.73;;
38972;SDS011;25333;50.762;4.470;2022-07-29T15:14:31;1.77;;;0.73;;
38972;SDS011;25333;50.762;4.470;2022-07-29T15:16:57;2.30;;;0.68;;
38972;SDS011;25333;50.762;4.470;2022-07-29T15:19:22;2.47;;;0.60;;
38972;SDS011;25333;50.762;4.470;2022-07-29T15:21:48;4.90;;;0.90;;
38972;SDS011;25333;50.762;4.470;2022-07-29T15:24:17;1.88;;;0.50;;
38972;SDS011;25333;50.762;4.470;2022-07-29T15:26:43;2.63;;;0.80;;
38972;SDS011;25333;50.762;4.470;2022-07-29T15:29:10;2.03;;;0.80;;
38972;SDS011;25333;50.762;4.470;2022-07-29T15:31:35;2.60;;;0.57;;
38972;SDS011;25333;50.762;4.470;2022-07-29T15:34:01;2.92;;;0.70;;
38972;SDS011;25333;50.762;4.470;2022-07-29T15:36:26;3.85;;;0.90;;
38972;SDS011;25333;50.762;4.470;2022-07-29T15:38:53;2.08;;;0.80;;
38972;SDS011;25333;50.762;4.470;2022-07-29T15:41:19;1.33;;;0.70;;
38972;SDS011;25333;50.762;4.470;2022-07-29T15:43:45;2.80;;;1.00;;
38972;SDS011;25333;50.762;4.470;2022-07-29T15:46:13;2.28;;;0.80;;
38972;SDS011;25333;50.762;4.470;2022-07-29T15:48:58;1.45;;;0.52;;
38972;SDS011;25333;50.762;4.470;2022-07-29T15:51:24;2.50;;;0.80;;
38972;SDS011;25333;50.762;4.470;2022-07-29T15:53:50;1.20;;;0.70;;
38972;SDS011;25333;50.762;4.470;2022-07-29T15:56:15;1.67;;;0.80;;
38972;SDS011;25333;50.762;4.470;2022-07-29T15:58:41;1.40;;;0.68;;